sensor_id;sensor_type;location;lat;lon;timestamp;P1;durP1;ratioP1;P2;durP2;ratioP2
24451;SDS011;13350;50.984;5.822;2023-04-03T00:02:16;4.82;;;3.38;;
24451;SDS011;13350;50.984;5.822;2023-04-03T00:04:43;5.05;;;3.20;;
24451;SDS011;13350;50.984;5.822;2023-04-03T00:07:10;4.32;;;3.30;;
24451;SDS011;13350;50.984;5.822;2023-04-03T00:09:40;3.40;;;3.10;;
24451;SDS011;13350;50.984;5.822;2023-04-03T00:12:07;4.95;;;3.20;;
24451;SDS011;13350;50.984;5.822;2023-04-03T00:14:34;5.25;;;3.17;;
24451;SDS011;13350;50.984;5.822;2023-04-03T00:17:01;3.20;;;2.92;;
24451;SDS011;13350;50.984;5.822;2023-04-03T00:19:30;5.78;;;3.60;;
24451;SDS011;13350;50.984;5.822;2023-04-03T00:21:57;4.53;;;3.90;;
24451;SDS011;13350;50.984;5.822;2023-04-03T00:24:25;5.70;;;3.67;;
24451;SDS011;13350;50.984;5.822;2023-04-03T00:26:52;5.28;;;3.72;;
24451;SDS011;13350;50.984;5.822;2023-04-03T00:29:19;3.85;;;3.40;;
24451;SDS011;13350;50.984;5.822;2023-04-03T00:31:46;5.65;;;3.60;;
24451;SDS011;13350;50.984;5.822;2023-04-03T00:34:14;6.70;;;3.78;;
24451;SDS011;13350;50.984;5.822;2023-04-03T00:36:42;5.57;;;4.03;;
24451;SDS011;13350;50.984;5.822;2023-04-03T00:39:10;6.38;;;3.95;;
24451;SDS011;13350;50.984;5.822;2023-04-03T00:41:37;4.13;;;3.55;;
24451;SDS011;13350;50.984;5.822;2023-04-03T00:44:18;5.15;;;3.47;;
24451;SDS011;13350;50.984;5.822;2023-04-03T00:49:15;4.13;;;3.47;;
24451;SDS011;13350;50.984;5.822;2023-04-03T00:51:44;4.47;;;3.92;;
24451;SDS011;13350;50.984;5.822;2023-04-03T00:54:12;4.38;;;3.60;;
24451;SDS011;13350;50.984;5.822;2023-04-03T00:56:39;4.85;;;3.70;;
24451;SDS011;13350;50.984;5.822;2023-04-03T00:59:08;4.93;;;3.67;;
24451;SDS011;13350;50.984;5.822;2023-04-03T01:01:37;4.32;;;3.92;;
24451;SDS011;13350;50.984;5.822;2023-04-03T01:04:05;4.40;;;3.42;;
24451;SDS011;13350;50.984;5.822;2023-04-03T01:06:53;5.47;;;3.42;;
24451;SDS011;13350;50.984;5.822;2023-04-03T01:09:22;4.85;;;3.95;;
24451;SDS011;13350;50.984;5.822;2023-04-03T01:11:49;5.30;;;3.10;;
24451;SDS011;13350;50.984;5.822;2023-04-03T01:14:17;4.18;;;3.45;;
24451;SDS011;13350;50.984;5.822;2023-04-03T01:16:51;3.72;;;3.38;;
24451;SDS011;13350;50.984;5.822;2023-04-03T01:19:19;4.25;;;3.65;;
24451;SDS011;13350;50.984;5.822;2023-04-03T01:21:56;6.22;;;3.38;;
24451;SDS011;13350;50.984;5.822;2023-04-03T01:24:38;5.18;;;3.97;;
24451;SDS011;13350;50.984;5.822;2023-04-03T01:27:06;4.20;;;3.70;;
24451;SDS011;13350;50.984;5.822;2023-04-03T01:29:35;4.05;;;3.65;;
24451;SDS011;13350;50.984;5.822;2023-04-03T01:32:05;4.65;;;3.83;;
24451;SDS011;13350;50.984;5.822;2023-04-03T01:34:33;4.45;;;3.55;;
24451;SDS011;13350;50.984;5.822;2023-04-03T01:37:00;6.03;;;4.15;;
24451;SDS011;13350;50.984;5.822;2023-04-03T01:39:27;6.75;;;4.28;;
24451;SDS011;13350;50.984;5.822;2023-04-03T01:41:54;5.18;;;4.00;;
24451;SDS011;13350;50.984;5.822;2023-04-03T01:44:21;9.40;;;4.63;;
24451;SDS011;13350;50.984;5.822;2023-04-03T01:46:49;4.95;;;3.80;;
24451;SDS011;13350;50.984;5.822;2023-04-03T01:49:17;5.38;;;3.95;;
24451;SDS011;13350;50.984;5.822;2023-04-03T01:51:45;5.32;;;4.35;;
24451;SDS011;13350;50.984;5.822;2023-04-03T01:54:12;5.50;;;4.03;;
24451;SDS011;13350;50.984;5.822;2023-04-03T01:56:39;6.78;;;4.70;;
24451;SDS011;13350;50.984;5.822;2023-04-03T01:59:06;5.78;;;4.45;;
24451;SDS011;13350;50.984;5.822;2023-04-03T02:01:34;5.10;;;4.35;;
24451;SDS011;13350;50.984;5.822;2023-04-03T02:04:01;5.07;;;4.50;;
24451;SDS011;13350;50.984;5.822;2023-04-03T02:06:29;5.72;;;4.60;;
24451;SDS011;13350;50.984;5.822;2023-04-03T02:08:57;6.78;;;4.90;;
24451;SDS011;13350;50.984;5.822;2023-04-03T02:11:24;6.55;;;4.90;;
24451;SDS011;13350;50.984;5.822;2023-04-03T02:13:51;5.95;;;4.53;;
24451;SDS011;13350;50.984;5.822;2023-04-03T02:16:18;6.00;;;4.40;;
24451;SDS011;13350;50.984;5.822;2023-04-03T02:18:45;5.43;;;4.50;;
24451;SDS011;13350;50.984;5.822;2023-04-03T02:21:13;4.90;;;4.35;;
24451;SDS011;13350;50.984;5.822;2023-04-03T02:23:41;5.85;;;5.10;;
24451;SDS011;13350;50.984;5.822;2023-04-03T02:26:09;7.80;;;5.30;;
24451;SDS011;13350;50.984;5.822;2023-04-03T02:28:38;4.93;;;4.47;;
24451;SDS011;13350;50.984;5.822;2023-04-03T02:31:06;6.38;;;5.32;;
24451;SDS011;13350;50.984;5.822;2023-04-03T02:33:34;6.43;;;4.53;;
24451;SDS011;13350;50.984;5.822;2023-04-03T02:36:02;5.10;;;4.55;;
24451;SDS011;13350;50.984;5.822;2023-04-03T02:38:30;6.63;;;4.93;;
24451;SDS011;13350;50.984;5.822;2023-04-03T02:41:01;9.13;;;6.10;;
24451;SDS011;13350;50.984;5.822;2023-04-03T02:43:28;5.93;;;5.22;;
24451;SDS011;13350;50.984;5.822;2023-04-03T02:45:55;6.88;;;5.30;;
24451;SDS011;13350;50.984;5.822;2023-04-03T02:48:22;8.25;;;5.95;;
24451;SDS011;13350;50.984;5.822;2023-04-03T02:50:50;6.70;;;6.00;;
24451;SDS011;13350;50.984;5.822;2023-04-03T02:53:17;5.75;;;4.85;;
24451;SDS011;13350;50.984;5.822;2023-04-03T02:55:45;8.07;;;5.40;;
24451;SDS011;13350;50.984;5.822;2023-04-03T02:58:14;5.93;;;5.30;;
24451;SDS011;13350;50.984;5.822;2023-04-03T03:00:41;6.10;;;5.57;;
24451;SDS011;13350;50.984;5.822;2023-04-03T03:03:09;8.20;;;5.57;;
24451;SDS011;13350;50.984;5.822;2023-04-03T03:05:36;6.22;;;5.10;;
24451;SDS011;13350;50.984;5.822;2023-04-03T03:08:03;8.60;;;5.22;;
24451;SDS011;13350;50.984;5.822;2023-04-03T03:10:30;6.72;;;5.28;;
24451;SDS011;13350;50.984;5.822;2023-04-03T03:12:57;5.32;;;4.82;;
24451;SDS011;13350;50.984;5.822;2023-04-03T03:15:26;9.35;;;5.43;;
24451;SDS011;13350;50.984;5.822;2023-04-03T03:17:53;6.80;;;4.47;;
24451;SDS011;13350;50.984;5.822;2023-04-03T03:20:20;6.20;;;4.32;;
24451;SDS011;13350;50.984;5.822;2023-04-03T03:22:47;6.40;;;4.60;;
24451;SDS011;13350;50.984;5.822;2023-04-03T03:25:14;7.30;;;5.28;;
24451;SDS011;13350;50.984;5.822;2023-04-03T03:27:42;5.93;;;4.72;;
24451;SDS011;13350;50.984;5.822;2023-04-03T03:30:09;5.93;;;5.32;;
24451;SDS011;13350;50.984;5.822;2023-04-03T03:32:38;6.15;;;5.55;;
24451;SDS011;13350;50.984;5.822;2023-04-03T03:35:05;6.38;;;5.03;;
24451;SDS011;13350;50.984;5.822;2023-04-03T03:37:33;8.10;;;4.60;;
24451;SDS011;13350;50.984;5.822;2023-04-03T03:40:00;7.13;;;5.22;;
24451;SDS011;13350;50.984;5.822;2023-04-03T03:42:27;7.18;;;5.32;;
24451;SDS011;13350;50.984;5.822;2023-04-03T03:44:54;10.57;;;5.90;;
24451;SDS011;13350;50.984;5.822;2023-04-03T03:47:21;8.02;;;5.65;;
24451;SDS011;13350;50.984;5.822;2023-04-03T03:49:50;7.13;;;5.43;;
24451;SDS011;13350;50.984;5.822;2023-04-03T03:52:17;6.68;;;5.47;;
24451;SDS011;13350;50.984;5.822;2023-04-03T03:54:44;7.57;;;5.30;;
24451;SDS011;13350;50.984;5.822;2023-04-03T03:57:12;6.80;;;5.82;;
24451;SDS011;13350;50.984;5.822;2023-04-03T03:59:40;6.55;;;5.82;;
24451;SDS011;13350;50.984;5.822;2023-04-03T04:02:07;8.20;;;5.85;;
24451;SDS011;13350;50.984;5.822;2023-04-03T04:04:35;6.70;;;4.97;;
24451;SDS011;13350;50.984;5.822;2023-04-03T04:07:04;8.70;;;6.00;;
24451;SDS011;13350;50.984;5.822;2023-04-03T04:09:31;7.65;;;5.65;;
24451;SDS011;13350;50.984;5.822;2023-04-03T04:11:58;7.50;;;5.72;;
24451;SDS011;13350;50.984;5.822;2023-04-03T04:14:25;7.78;;;5.70;;
24451;SDS011;13350;50.984;5.822;2023-04-03T04:16:52;8.32;;;6.53;;
24451;SDS011;13350;50.984;5.822;2023-04-03T04:19:19;9.85;;;6.45;;
24451;SDS011;13350;50.984;5.822;2023-04-03T04:21:47;8.57;;;6.28;;
24451;SDS011;13350;50.984;5.822;2023-04-03T04:24:15;8.40;;;6.15;;
24451;SDS011;13350;50.984;5.822;2023-04-03T04:26:42;7.55;;;6.28;;
24451;SDS011;13350;50.984;5.822;2023-04-03T04:29:09;7.65;;;6.40;;
24451;SDS011;13350;50.984;5.822;2023-04-03T04:31:37;7.65;;;6.57;;
24451;SDS011;13350;50.984;5.822;2023-04-03T04:34:04;9.65;;;6.82;;
24451;SDS011;13350;50.984;5.822;2023-04-03T04:36:32;8.02;;;7.10;;
24451;SDS011;13350;50.984;5.822;2023-04-03T04:38:59;8.15;;;6.72;;
24451;SDS011;13350;50.984;5.822;2023-04-03T04:41:28;9.80;;;7.10;;
24451;SDS011;13350;50.984;5.822;2023-04-03T04:43:55;9.07;;;7.78;;
24451;SDS011;13350;50.984;5.822;2023-04-03T04:46:22;12.10;;;8.20;;
24451;SDS011;13350;50.984;5.822;2023-04-03T04:48:49;10.73;;;7.90;;
24451;SDS011;13350;50.984;5.822;2023-04-03T04:51:16;10.20;;;8.68;;
24451;SDS011;13350;50.984;5.822;2023-04-03T04:53:44;11.60;;;8.13;;
24451;SDS011;13350;50.984;5.822;2023-04-03T04:56:11;10.82;;;8.45;;
24451;SDS011;13350;50.984;5.822;2023-04-03T04:58:40;10.18;;;8.82;;
24451;SDS011;13350;50.984;5.822;2023-04-03T05:01:07;12.40;;;8.98;;
24451;SDS011;13350;50.984;5.822;2023-04-03T05:03:36;12.75;;;8.77;;
24451;SDS011;13350;50.984;5.822;2023-04-03T05:06:04;10.50;;;8.10;;
24451;SDS011;13350;50.984;5.822;2023-04-03T05:08:31;9.95;;;7.93;;
24451;SDS011;13350;50.984;5.822;2023-04-03T05:10:58;8.60;;;7.70;;
24451;SDS011;13350;50.984;5.822;2023-04-03T05:13:25;9.63;;;7.65;;
24451;SDS011;13350;50.984;5.822;2023-04-03T05:15:54;10.30;;;8.25;;
24451;SDS011;13350;50.984;5.822;2023-04-03T05:18:21;9.77;;;8.05;;
24451;SDS011;13350;50.984;5.822;2023-04-03T05:20:48;9.82;;;8.30;;
24451;SDS011;13350;50.984;5.822;2023-04-03T05:23:16;11.30;;;7.88;;
24451;SDS011;13350;50.984;5.822;2023-04-03T05:25:44;11.35;;;8.40;;
24451;SDS011;13350;50.984;5.822;2023-04-03T05:28:12;12.57;;;8.73;;
24451;SDS011;13350;50.984;5.822;2023-04-03T05:30:40;8.88;;;7.28;;
24451;SDS011;13350;50.984;5.822;2023-04-03T05:33:08;8.93;;;7.28;;
24451;SDS011;13350;50.984;5.822;2023-04-03T05:35:36;8.20;;;7.05;;
24451;SDS011;13350;50.984;5.822;2023-04-03T05:38:04;8.00;;;6.28;;
24451;SDS011;13350;50.984;5.822;2023-04-03T05:40:32;7.38;;;5.95;;
24451;SDS011;13350;50.984;5.822;2023-04-03T05:42:59;7.70;;;5.57;;
24451;SDS011;13350;50.984;5.822;2023-04-03T05:45:26;6.13;;;5.22;;
24451;SDS011;13350;50.984;5.822;2023-04-03T05:47:53;7.65;;;4.88;;
24451;SDS011;13350;50.984;5.822;2023-04-03T05:50:22;5.75;;;4.03;;
24451;SDS011;13350;50.984;5.822;2023-04-03T05:52:49;6.40;;;3.83;;
24451;SDS011;13350;50.984;5.822;2023-04-03T05:55:19;4.82;;;3.28;;
24451;SDS011;13350;50.984;5.822;2023-04-03T05:57:46;5.10;;;3.10;;
24451;SDS011;13350;50.984;5.822;2023-04-03T06:00:14;4.20;;;3.00;;
24451;SDS011;13350;50.984;5.822;2023-04-03T06:02:42;4.55;;;2.92;;
24451;SDS011;13350;50.984;5.822;2023-04-03T06:05:10;3.40;;;2.63;;
24451;SDS011;13350;50.984;5.822;2023-04-03T06:07:39;3.95;;;2.30;;
24451;SDS011;13350;50.984;5.822;2023-04-03T06:10:07;4.63;;;2.13;;
24451;SDS011;13350;50.984;5.822;2023-04-03T06:12:35;4.90;;;2.10;;
24451;SDS011;13350;50.984;5.822;2023-04-03T06:15:02;3.67;;;2.40;;
24451;SDS011;13350;50.984;5.822;2023-04-03T06:17:30;4.38;;;2.67;;
24451;SDS011;13350;50.984;5.822;2023-04-03T06:19:58;3.83;;;2.55;;
24451;SDS011;13350;50.984;5.822;2023-04-03T06:22:25;3.85;;;2.67;;
24451;SDS011;13350;50.984;5.822;2023-04-03T06:24:56;4.20;;;2.10;;
24451;SDS011;13350;50.984;5.822;2023-04-03T06:27:23;5.05;;;2.42;;
24451;SDS011;13350;50.984;5.822;2023-04-03T06:29:50;4.00;;;2.13;;
24451;SDS011;13350;50.984;5.822;2023-04-03T06:32:18;2.83;;;2.00;;
24451;SDS011;13350;50.984;5.822;2023-04-03T06:34:45;4.03;;;2.25;;
24451;SDS011;13350;50.984;5.822;2023-04-03T06:37:13;3.95;;;2.10;;
24451;SDS011;13350;50.984;5.822;2023-04-03T06:39:43;2.65;;;2.10;;
24451;SDS011;13350;50.984;5.822;2023-04-03T06:42:11;2.72;;;1.73;;
24451;SDS011;13350;50.984;5.822;2023-04-03T06:44:39;4.55;;;1.90;;
24451;SDS011;13350;50.984;5.822;2023-04-03T06:47:06;3.08;;;2.03;;
24451;SDS011;13350;50.984;5.822;2023-04-03T06:49:36;3.92;;;2.00;;
24451;SDS011;13350;50.984;5.822;2023-04-03T06:52:03;3.85;;;1.98;;
24451;SDS011;13350;50.984;5.822;2023-04-03T06:54:31;2.53;;;1.90;;
24451;SDS011;13350;50.984;5.822;2023-04-03T06:56:58;3.63;;;1.95;;
24451;SDS011;13350;50.984;5.822;2023-04-03T06:59:27;4.05;;;2.05;;
24451;SDS011;13350;50.984;5.822;2023-04-03T07:01:54;3.25;;;1.90;;
24451;SDS011;13350;50.984;5.822;2023-04-03T07:04:21;3.45;;;1.73;;
24451;SDS011;13350;50.984;5.822;2023-04-03T07:06:48;4.28;;;1.90;;
24451;SDS011;13350;50.984;5.822;2023-04-03T07:09:16;5.45;;;2.10;;
24451;SDS011;13350;50.984;5.822;2023-04-03T07:11:43;3.92;;;2.30;;
24451;SDS011;13350;50.984;5.822;2023-04-03T07:14:10;5.72;;;2.28;;
24451;SDS011;13350;50.984;5.822;2023-04-03T07:16:39;2.05;;;1.80;;
24451;SDS011;13350;50.984;5.822;2023-04-03T07:19:06;5.93;;;2.47;;
24451;SDS011;13350;50.984;5.822;2023-04-03T07:21:35;5.68;;;1.92;;
24451;SDS011;13350;50.984;5.822;2023-04-03T07:24:02;3.42;;;2.20;;
24451;SDS011;13350;50.984;5.822;2023-04-03T07:26:29;2.85;;;1.98;;
24451;SDS011;13350;50.984;5.822;2023-04-03T07:28:57;5.05;;;2.53;;
24451;SDS011;13350;50.984;5.822;2023-04-03T07:31:24;4.35;;;2.53;;
24451;SDS011;13350;50.984;5.822;2023-04-03T07:33:53;5.18;;;2.30;;
24451;SDS011;13350;50.984;5.822;2023-04-03T07:36:21;5.28;;;2.10;;
24451;SDS011;13350;50.984;5.822;2023-04-03T07:38:49;2.97;;;2.17;;
24451;SDS011;13350;50.984;5.822;2023-04-03T07:41:18;3.53;;;2.00;;
24451;SDS011;13350;50.984;5.822;2023-04-03T07:43:47;3.40;;;1.73;;
24451;SDS011;13350;50.984;5.822;2023-04-03T07:46:15;3.40;;;1.88;;
24451;SDS011;13350;50.984;5.822;2023-04-03T07:48:43;3.75;;;2.25;;
24451;SDS011;13350;50.984;5.822;2023-04-03T07:51:12;5.20;;;2.20;;
24451;SDS011;13350;50.984;5.822;2023-04-03T07:53:40;3.65;;;1.80;;
24451;SDS011;13350;50.984;5.822;2023-04-03T07:56:07;3.20;;;1.90;;
24451;SDS011;13350;50.984;5.822;2023-04-03T07:58:35;2.97;;;2.15;;
24451;SDS011;13350;50.984;5.822;2023-04-03T08:01:02;3.30;;;2.17;;
24451;SDS011;13350;50.984;5.822;2023-04-03T08:03:30;5.15;;;2.35;;
24451;SDS011;13350;50.984;5.822;2023-04-03T08:06:01;2.80;;;1.92;;
24451;SDS011;13350;50.984;5.822;2023-04-03T08:08:31;4.28;;;2.30;;
24451;SDS011;13350;50.984;5.822;2023-04-03T08:10:59;4.75;;;2.10;;
24451;SDS011;13350;50.984;5.822;2023-04-03T08:13:27;4.18;;;2.25;;
24451;SDS011;13350;50.984;5.822;2023-04-03T08:15:56;4.78;;;2.53;;
24451;SDS011;13350;50.984;5.822;2023-04-03T08:18:24;4.82;;;2.30;;
24451;SDS011;13350;50.984;5.822;2023-04-03T08:20:52;4.88;;;2.20;;
24451;SDS011;13350;50.984;5.822;2023-04-03T08:23:19;7.03;;;2.70;;
24451;SDS011;13350;50.984;5.822;2023-04-03T08:25:47;4.90;;;2.20;;
24451;SDS011;13350;50.984;5.822;2023-04-03T08:28:16;4.03;;;2.05;;
24451;SDS011;13350;50.984;5.822;2023-04-03T08:30:43;4.18;;;2.20;;
24451;SDS011;13350;50.984;5.822;2023-04-03T08:33:11;2.75;;;2.00;;
24451;SDS011;13350;50.984;5.822;2023-04-03T08:35:38;2.80;;;2.08;;
24451;SDS011;13350;50.984;5.822;2023-04-03T08:38:06;4.80;;;2.28;;
24451;SDS011;13350;50.984;5.822;2023-04-03T08:40:34;2.95;;;1.88;;
24451;SDS011;13350;50.984;5.822;2023-04-03T08:43:06;4.45;;;2.00;;
24451;SDS011;13350;50.984;5.822;2023-04-03T08:45:48;4.35;;;1.80;;
24451;SDS011;13350;50.984;5.822;2023-04-03T08:48:20;3.08;;;1.77;;
24451;SDS011;13350;50.984;5.822;2023-04-03T08:50:51;3.85;;;1.58;;
24451;SDS011;13350;50.984;5.822;2023-04-03T08:53:21;3.47;;;1.52;;
24451;SDS011;13350;50.984;5.822;2023-04-03T08:55:52;4.32;;;1.40;;
24451;SDS011;13350;50.984;5.822;2023-04-03T08:58:22;2.42;;;1.48;;
24451;SDS011;13350;50.984;5.822;2023-04-03T09:00:53;2.75;;;1.42;;
24451;SDS011;13350;50.984;5.822;2023-04-03T09:03:23;3.58;;;1.55;;
24451;SDS011;13350;50.984;5.822;2023-04-03T09:05:52;3.10;;;1.73;;
24451;SDS011;13350;50.984;5.822;2023-04-03T09:08:24;2.83;;;1.30;;
24451;SDS011;13350;50.984;5.822;2023-04-03T09:10:58;1.95;;;1.17;;
24451;SDS011;13350;50.984;5.822;2023-04-03T09:13:36;2.45;;;1.25;;
24451;SDS011;13350;50.984;5.822;2023-04-03T09:16:14;2.17;;;1.10;;
24451;SDS011;13350;50.984;5.822;2023-04-03T09:18:52;2.42;;;1.27;;
24451;SDS011;13350;50.984;5.822;2023-04-03T09:21:27;1.85;;;1.13;;
24451;SDS011;13350;50.984;5.822;2023-04-03T09:24:01;2.67;;;1.08;;
24451;SDS011;13350;50.984;5.822;2023-04-03T09:26:31;1.50;;;0.98;;
24451;SDS011;13350;50.984;5.822;2023-04-03T09:29:04;1.88;;;1.02;;
24451;SDS011;13350;50.984;5.822;2023-04-03T09:31:36;4.03;;;1.23;;
24451;SDS011;13350;50.984;5.822;2023-04-03T09:34:06;2.80;;;1.10;;
24451;SDS011;13350;50.984;5.822;2023-04-03T09:36:43;1.77;;;1.23;;
24451;SDS011;13350;50.984;5.822;2023-04-03T09:39:12;2.30;;;1.20;;
24451;SDS011;13350;50.984;5.822;2023-04-03T09:41:41;2.25;;;1.17;;
24451;SDS011;13350;50.984;5.822;2023-04-03T09:44:23;4.88;;;1.30;;
24451;SDS011;13350;50.984;5.822;2023-04-03T09:46:51;1.50;;;1.15;;
24451;SDS011;13350;50.984;5.822;2023-04-03T09:49:19;2.58;;;1.23;;
24451;SDS011;13350;50.984;5.822;2023-04-03T09:51:46;2.30;;;0.90;;
24451;SDS011;13350;50.984;5.822;2023-04-03T09:54:24;2.20;;;1.13;;
24451;SDS011;13350;50.984;5.822;2023-04-03T09:57:01;1.83;;;1.02;;
24451;SDS011;13350;50.984;5.822;2023-04-03T09:59:34;2.13;;;1.00;;
24451;SDS011;13350;50.984;5.822;2023-04-03T10:02:03;3.90;;;0.90;;
24451;SDS011;13350;50.984;5.822;2023-04-03T10:04:44;1.80;;;1.15;;
24451;SDS011;13350;50.984;5.822;2023-04-03T10:07:25;2.15;;;1.13;;
24451;SDS011;13350;50.984;5.822;2023-04-03T10:09:55;4.45;;;1.08;;
24451;SDS011;13350;50.984;5.822;2023-04-03T10:12:23;2.35;;;1.15;;
24451;SDS011;13350;50.984;5.822;2023-04-03T10:14:56;2.25;;;1.02;;
24451;SDS011;13350;50.984;5.822;2023-04-03T10:17:26;1.40;;;0.98;;
24451;SDS011;13350;50.984;5.822;2023-04-03T10:20:06;1.70;;;1.08;;
24451;SDS011;13350;50.984;5.822;2023-04-03T10:22:43;2.50;;;1.20;;
24451;SDS011;13350;50.984;5.822;2023-04-03T10:25:20;2.88;;;1.20;;
24451;SDS011;13350;50.984;5.822;2023-04-03T10:27:53;1.58;;;0.90;;
24451;SDS011;13350;50.984;5.822;2023-04-03T10:30:31;2.30;;;1.05;;
24451;SDS011;13350;50.984;5.822;2023-04-03T10:33:11;2.13;;;1.02;;
24451;SDS011;13350;50.984;5.822;2023-04-03T10:35:51;2.33;;;1.02;;
24451;SDS011;13350;50.984;5.822;2023-04-03T10:38:31;1.98;;;1.10;;
24451;SDS011;13350;50.984;5.822;2023-04-03T10:41:07;1.27;;;0.80;;
24451;SDS011;13350;50.984;5.822;2023-04-03T10:43:43;2.00;;;1.17;;
24451;SDS011;13350;50.984;5.822;2023-04-03T10:46:20;2.28;;;1.23;;
24451;SDS011;13350;50.984;5.822;2023-04-03T10:48:54;1.65;;;1.10;;
24451;SDS011;13350;50.984;5.822;2023-04-03T10:51:33;2.45;;;0.98;;
24451;SDS011;13350;50.984;5.822;2023-04-03T10:54:08;2.08;;;1.00;;
24451;SDS011;13350;50.984;5.822;2023-04-03T10:56:40;2.65;;;0.95;;
24451;SDS011;13350;50.984;5.822;2023-04-03T10:59:16;2.00;;;1.00;;
24451;SDS011;13350;50.984;5.822;2023-04-03T11:01:51;2.78;;;0.90;;
24451;SDS011;13350;50.984;5.822;2023-04-03T11:04:23;1.77;;;0.90;;
24451;SDS011;13350;50.984;5.822;2023-04-03T11:06:56;2.03;;;0.90;;
24451;SDS011;13350;50.984;5.822;2023-04-03T11:09:28;1.60;;;0.80;;
24451;SDS011;13350;50.984;5.822;2023-04-03T11:12:00;1.42;;;0.90;;
24451;SDS011;13350;50.984;5.822;2023-04-03T11:14:31;2.15;;;1.00;;
24451;SDS011;13350;50.984;5.822;2023-04-03T11:17:15;2.65;;;1.00;;
24451;SDS011;13350;50.984;5.822;2023-04-03T11:19:52;1.98;;;0.90;;
24451;SDS011;13350;50.984;5.822;2023-04-03T11:22:28;1.70;;;0.80;;
24451;SDS011;13350;50.984;5.822;2023-04-03T11:25:02;2.70;;;1.02;;
24451;SDS011;13350;50.984;5.822;2023-04-03T11:27:35;1.45;;;0.98;;
24451;SDS011;13350;50.984;5.822;2023-04-03T11:30:11;1.30;;;0.88;;
24451;SDS011;13350;50.984;5.822;2023-04-03T11:35:48;3.10;;;1.00;;
24451;SDS011;13350;50.984;5.822;2023-04-03T11:38:19;1.88;;;0.95;;
24451;SDS011;13350;50.984;5.822;2023-04-03T11:40:51;1.80;;;1.00;;
24451;SDS011;13350;50.984;5.822;2023-04-03T11:43:23;2.20;;;1.20;;
24451;SDS011;13350;50.984;5.822;2023-04-03T11:45:53;1.88;;;0.80;;
24451;SDS011;13350;50.984;5.822;2023-04-03T11:57:22;1.45;;;0.95;;
24451;SDS011;13350;50.984;5.822;2023-04-03T12:03:35;2.13;;;1.23;;
24451;SDS011;13350;50.984;5.822;2023-04-03T12:06:49;2.35;;;1.00;;
24451;SDS011;13350;50.984;5.822;2023-04-03T12:09:24;4.47;;;1.27;;
24451;SDS011;13350;50.984;5.822;2023-04-03T12:11:54;1.50;;;1.10;;
24451;SDS011;13350;50.984;5.822;2023-04-03T12:14:23;2.45;;;1.13;;
24451;SDS011;13350;50.984;5.822;2023-04-03T12:16:52;3.17;;;1.00;;
24451;SDS011;13350;50.984;5.822;2023-04-03T12:19:35;2.47;;;1.20;;
24451;SDS011;13350;50.984;5.822;2023-04-03T12:22:08;3.60;;;1.13;;
24451;SDS011;13350;50.984;5.822;2023-04-03T12:24:37;3.67;;;1.13;;
24451;SDS011;13350;50.984;5.822;2023-04-03T12:30:05;1.85;;;0.80;;
24451;SDS011;13350;50.984;5.822;2023-04-03T12:35:48;2.33;;;1.00;;
24451;SDS011;13350;50.984;5.822;2023-04-03T12:41:23;2.75;;;0.95;;
24451;SDS011;13350;50.984;5.822;2023-04-03T12:44:05;2.67;;;1.00;;
24451;SDS011;13350;50.984;5.822;2023-04-03T12:46:44;1.95;;;1.05;;
24451;SDS011;13350;50.984;5.822;2023-04-03T12:49:18;2.60;;;1.00;;
24451;SDS011;13350;50.984;5.822;2023-04-03T12:51:56;2.10;;;0.98;;
24451;SDS011;13350;50.984;5.822;2023-04-03T12:54:29;2.33;;;1.00;;
24451;SDS011;13350;50.984;5.822;2023-04-03T12:57:11;2.45;;;1.20;;
24451;SDS011;13350;50.984;5.822;2023-04-03T12:59:43;2.97;;;1.20;;
24451;SDS011;13350;50.984;5.822;2023-04-03T13:02:22;2.22;;;1.08;;
24451;SDS011;13350;50.984;5.822;2023-04-03T13:04:52;2.90;;;1.08;;
24451;SDS011;13350;50.984;5.822;2023-04-03T13:07:24;4.32;;;1.30;;
24451;SDS011;13350;50.984;5.822;2023-04-03T13:09:58;3.78;;;1.27;;
24451;SDS011;13350;50.984;5.822;2023-04-03T13:12:26;3.95;;;1.00;;
24451;SDS011;13350;50.984;5.822;2023-04-03T13:14:54;2.00;;;0.98;;
24451;SDS011;13350;50.984;5.822;2023-04-03T13:17:23;1.60;;;1.15;;
24451;SDS011;13350;50.984;5.822;2023-04-03T13:19:52;4.20;;;1.35;;
24451;SDS011;13350;50.984;5.822;2023-04-03T13:22:24;3.38;;;1.20;;
24451;SDS011;13350;50.984;5.822;2023-04-03T13:24:55;3.20;;;1.13;;
24451;SDS011;13350;50.984;5.822;2023-04-03T13:27:26;1.98;;;1.10;;
24451;SDS011;13350;50.984;5.822;2023-04-03T13:29:57;1.77;;;0.80;;
24451;SDS011;13350;50.984;5.822;2023-04-03T13:32:27;3.45;;;1.20;;
24451;SDS011;13350;50.984;5.822;2023-04-03T13:34:56;2.67;;;1.05;;
24451;SDS011;13350;50.984;5.822;2023-04-03T13:37:24;3.50;;;1.10;;
24451;SDS011;13350;50.984;5.822;2023-04-03T13:39:58;2.50;;;1.23;;
24451;SDS011;13350;50.984;5.822;2023-04-03T13:42:28;2.10;;;1.27;;
24451;SDS011;13350;50.984;5.822;2023-04-03T13:45:10;1.98;;;1.10;;
24451;SDS011;13350;50.984;5.822;2023-04-03T13:47:45;2.58;;;1.05;;
24451;SDS011;13350;50.984;5.822;2023-04-03T13:50:17;4.18;;;1.40;;
24451;SDS011;13350;50.984;5.822;2023-04-03T13:52:48;1.33;;;1.00;;
24451;SDS011;13350;50.984;5.822;2023-04-03T13:55:21;1.10;;;0.90;;
24451;SDS011;13350;50.984;5.822;2023-04-03T13:57:51;2.17;;;1.02;;
24451;SDS011;13350;50.984;5.822;2023-04-03T14:00:26;1.42;;;0.88;;
24451;SDS011;13350;50.984;5.822;2023-04-03T14:03:12;3.05;;;1.25;;
24451;SDS011;13350;50.984;5.822;2023-04-03T14:05:40;1.73;;;0.90;;
24451;SDS011;13350;50.984;5.822;2023-04-03T14:08:07;2.63;;;1.20;;
24451;SDS011;13350;50.984;5.822;2023-04-03T14:10:36;2.30;;;1.20;;
24451;SDS011;13350;50.984;5.822;2023-04-03T14:13:04;1.95;;;1.05;;
24451;SDS011;13350;50.984;5.822;2023-04-03T14:15:31;3.70;;;0.95;;
24451;SDS011;13350;50.984;5.822;2023-04-03T14:17:58;1.92;;;0.98;;
24451;SDS011;13350;50.984;5.822;2023-04-03T14:20:26;2.75;;;1.10;;
24451;SDS011;13350;50.984;5.822;2023-04-03T14:22:54;1.80;;;1.00;;
24451;SDS011;13350;50.984;5.822;2023-04-03T14:25:22;1.17;;;0.90;;
24451;SDS011;13350;50.984;5.822;2023-04-03T14:27:52;2.35;;;1.00;;
24451;SDS011;13350;50.984;5.822;2023-04-03T14:30:21;3.38;;;0.90;;
24451;SDS011;13350;50.984;5.822;2023-04-03T14:32:50;2.80;;;1.05;;
24451;SDS011;13350;50.984;5.822;2023-04-03T14:35:17;1.67;;;1.10;;
24451;SDS011;13350;50.984;5.822;2023-04-03T14:37:45;1.63;;;1.10;;
24451;SDS011;13350;50.984;5.822;2023-04-03T14:40:14;2.63;;;0.90;;
24451;SDS011;13350;50.984;5.822;2023-04-03T14:42:42;1.75;;;1.00;;
24451;SDS011;13350;50.984;5.822;2023-04-03T14:45:11;1.33;;;0.77;;
24451;SDS011;13350;50.984;5.822;2023-04-03T14:47:40;2.20;;;1.13;;
24451;SDS011;13350;50.984;5.822;2023-04-03T14:50:12;1.80;;;1.02;;
24451;SDS011;13350;50.984;5.822;2023-04-03T14:52:43;0.70;;;0.63;;
24451;SDS011;13350;50.984;5.822;2023-04-03T14:55:11;1.20;;;0.82;;
24451;SDS011;13350;50.984;5.822;2023-04-03T14:57:41;2.30;;;0.90;;
24451;SDS011;13350;50.984;5.822;2023-04-03T15:00:13;2.80;;;0.98;;
24451;SDS011;13350;50.984;5.822;2023-04-03T15:02:42;2.58;;;0.93;;
24451;SDS011;13350;50.984;5.822;2023-04-03T15:05:11;3.25;;;1.23;;
24451;SDS011;13350;50.984;5.822;2023-04-03T15:07:39;1.70;;;1.20;;
24451;SDS011;13350;50.984;5.822;2023-04-03T15:10:16;1.70;;;1.00;;
24451;SDS011;13350;50.984;5.822;2023-04-03T15:12:45;2.28;;;1.10;;
24451;SDS011;13350;50.984;5.822;2023-04-03T15:15:15;1.98;;;1.00;;
24451;SDS011;13350;50.984;5.822;2023-04-03T15:17:44;2.03;;;1.13;;
24451;SDS011;13350;50.984;5.822;2023-04-03T15:20:14;1.77;;;1.00;;
24451;SDS011;13350;50.984;5.822;2023-04-03T15:22:43;1.25;;;1.00;;
24451;SDS011;13350;50.984;5.822;2023-04-03T15:25:11;3.22;;;1.40;;
24451;SDS011;13350;50.984;5.822;2023-04-03T15:27:38;3.47;;;1.10;;
24451;SDS011;13350;50.984;5.822;2023-04-03T15:30:06;2.97;;;1.13;;
24451;SDS011;13350;50.984;5.822;2023-04-03T15:32:39;2.70;;;1.08;;